Terminal Aerodrome Forecast
Issued by NWS

Home | Current Version | Previous Version | Text Only | Print | Product List | Glossary On
Versions: 1 2 3 4 5 6 7 8 9 10 11 12 13 14 15 16 17 18 19 20 21 22 23 24
000
FTUS43 KLSX 171000 AAA
TAFCPS
TAF AMD
KCPS 171001Z 1710/1806 VRB03KT 3SM BR SKC
      TEMPO 1710/1711 1/2SM FG BKN002
     FM171100 VRB03KT P6SM BKN050
      TEMPO 1711/1712 3SM BR
     FM171700 17005KT P6SM SCT025 OVC040=

USA.gov is the U.S. government's official web portal to all federal, state and local government web resources and services.